Time;durP1;ratioP1;P1;durP2;ratioP2;P2;SDS_P1;SDS_P2;PMS_P1;PMS_P2;Temp;Humidity;BMP_temperature;BMP_pressure;BME280_temperature;BME280_humidity;BME280_pressure;Samples;Min_cycle;Max_cycle;Signal;HPM_P1;HPM_P2
2023/01/19 00:01:22;;;;;;;11.70;7.50;;;2.00;99.90;;;;;;7343966;32;20218;-60
2023/01/19 00:05:23;;;;;;;9.57;7.07;;;2.00;99.90;;;;;;7350827;32;20570;-61
2023/01/19 00:09:26;;;;;;;10.63;7.30;;;2.00;99.90;;;;;;7345586;32;20493;-60
2023/01/19 00:13:28;;;;;;;10.00;7.30;;;2.00;99.90;;;;;;7338347;32;20107;-61
2023/01/19 00:17:30;;;;;;;12.80;7.28;;;1.90;99.90;;;;;;7348090;32;20175;-60
2023/01/19 00:21:31;;;;;;;11.68;6.97;;;1.90;99.90;;;;;;7350786;32;20403;-60
2023/01/19 00:25:33;;;;;;;9.95;7.53;;;2.00;99.90;;;;;;7343308;32;20202;-61
2023/01/19 00:29:35;;;;;;;10.60;7.22;;;2.00;99.90;;;;;;7347094;32;20190;-61
2023/01/19 00:33:37;;;;;;;12.57;7.70;;;1.90;99.90;;;;;;7336333;32;20119;-60
2023/01/19 00:37:38;;;;;;;10.82;7.45;;;1.90;99.90;;;;;;7342657;32;20115;-61
2023/01/19 00:46:08;;;;;;;11.18;7.10;;;1.90;99.90;;;;;;7334759;32;20126;-60
2023/01/19 00:50:11;;;;;;;12.02;7.22;;;1.80;99.90;;;;;;7350070;32;20970;-61
2023/01/19 00:54:13;;;;;;;12.40;7.37;;;1.70;99.90;;;;;;7341217;32;20702;-61
2023/01/19 00:58:15;;;;;;;14.32;7.30;;;1.80;99.90;;;;;;7351345;32;20134;-60
2023/01/19 01:02:16;;;;;;;7.93;4.75;;;1.90;99.90;;;;;;7343780;32;20117;-61
2023/01/19 01:06:19;;;;;;;15.55;7.78;;;1.80;99.90;;;;;;7348182;32;20119;-61
2023/01/19 01:10:27;;;;;;;13.02;7.22;;;1.80;99.90;;;;;;7345752;32;20141;-60
2023/01/19 01:14:29;;;;;;;10.35;7.00;;;1.80;99.90;;;;;;7348340;32;20184;-63
2023/01/19 01:18:31;;;;;;;12.82;7.60;;;1.80;99.90;;;;;;7344199;32;20210;-61
2023/01/19 01:22:32;;;;;;;13.18;7.32;;;1.70;99.90;;;;;;7339722;32;20136;-61
2023/01/19 01:26:34;;;;;;;13.85;7.45;;;1.80;99.90;;;;;;7347337;32;20160;-61
2023/01/19 01:30:39;;;;;;;10.10;7.20;;;1.80;99.90;;;;;;7336778;32;20205;-61
2023/01/19 01:34:41;;;;;;;12.35;7.55;;;1.80;99.90;;;;;;7340495;32;20103;-62
2023/01/19 01:38:43;;;;;;;12.90;7.90;;;1.90;99.90;;;;;;7339293;32;20508;-62
2023/01/19 01:42:45;;;;;;;10.70;7.60;;;1.90;99.90;;;;;;7344582;32;20218;-60
2023/01/19 01:46:47;;;;;;;13.50;7.70;;;1.80;99.90;;;;;;7346554;32;20112;-62
2023/01/19 01:55:19;;;;;;;12.85;7.03;;;1.90;99.90;;;;;;7335231;32;20540;-61
2023/01/19 01:59:33;;;;;;;11.50;8.13;;;1.90;99.90;;;;;;7349454;32;20134;-61
2023/01/19 02:03:35;;;;;;;12.15;7.47;;;1.90;99.90;;;;;;7345122;32;20705;-61
2023/01/19 02:16:23;;;;;;;13.82;7.20;;;2.00;99.90;;;;;;7343600;32;20742;-62
2023/01/19 02:20:29;;;;;;;20.15;8.18;;;2.00;99.90;;;;;;7344034;32;20100;-62
2023/01/19 02:24:31;;;;;;;9.05;6.95;;;1.90;99.90;;;;;;7338988;32;20291;-61
2023/01/19 02:28:33;;;;;;;15.45;8.23;;;2.00;99.90;;;;;;7347914;32;20154;-60
2023/01/19 02:32:35;;;;;;;11.40;7.55;;;2.00;99.90;;;;;;7344870;32;20112;-61
2023/01/19 02:36:38;;;;;;;13.75;8.23;;;2.00;99.90;;;;;;7346798;32;20124;-61
2023/01/19 02:40:42;;;;;;;10.07;7.55;;;1.90;99.90;;;;;;7343777;32;20226;-61
2023/01/19 02:44:47;;;;;;;14.02;7.50;;;1.90;99.90;;;;;;7338249;32;20148;-62
2023/01/19 02:48:49;;;;;;;13.23;7.53;;;1.90;99.90;;;;;;7339254;32;20138;-61
2023/01/19 02:52:59;;;;;;;13.38;7.82;;;1.90;99.90;;;;;;7348545;32;20422;-60
2023/01/19 02:57:13;;;;;;;14.07;8.30;;;1.90;99.90;;;;;;7345953;32;20289;-61
2023/01/19 03:01:22;;;;;;;10.45;7.37;;;1.90;99.90;;;;;;7346894;32;20106;-60
2023/01/19 03:05:38;;;;;;;11.35;7.37;;;1.90;99.90;;;;;;7337765;32;20569;-61
2023/01/19 03:09:49;;;;;;;12.60;7.65;;;1.80;99.90;;;;;;7338490;32;20121;-61
2023/01/19 03:13:53;;;;;;;15.63;7.57;;;1.70;99.90;;;;;;7341395;32;20261;-60
2023/01/19 03:17:57;;;;;;;11.70;7.62;;;1.70;99.90;;;;;;7336121;32;20134;-60
2023/01/19 03:22:12;;;;;;;12.37;7.32;;;1.60;99.90;;;;;;7341579;32;20111;-61
2023/01/19 03:26:21;;;;;;;15.20;7.25;;;1.60;99.90;;;;;;7345794;32;20099;-60
2023/01/19 03:30:31;;;;;;;15.43;6.62;;;1.70;99.90;;;;;;7338170;32;20227;-61
2023/01/19 03:34:33;;;;;;;9.48;6.82;;;1.70;99.90;;;;;;7338380;32;20131;-60
2023/01/19 03:38:37;;;;;;;10.38;6.97;;;1.70;99.90;;;;;;7348221;32;20102;-60
2023/01/19 03:42:41;;;;;;;14.48;6.97;;;1.70;99.90;;;;;;7344215;32;20248;-61
2023/01/19 03:46:44;;;;;;;15.85;7.60;;;1.70;99.90;;;;;;7350849;32;20103;-60
2023/01/19 03:50:46;;;;;;;13.20;6.97;;;1.80;99.90;;;;;;7335751;32;20150;-60
2023/01/19 03:54:48;;;;;;;12.65;6.50;;;1.80;99.90;;;;;;7345636;32;20136;-60
2023/01/19 03:58:50;;;;;;;11.07;6.72;;;1.80;99.90;;;;;;7348963;32;20144;-60
2023/01/19 04:02:52;;;;;;;12.07;7.45;;;1.90;99.90;;;;;;7345346;32;20132;-60
2023/01/19 04:06:54;;;;;;;12.18;6.70;;;1.90;99.90;;;;;;7346731;32;20198;-61
2023/01/19 04:10:56;;;;;;;12.30;6.35;;;2.00;99.90;;;;;;7338594;32;20374;-60
2023/01/19 04:14:58;;;;;;;12.88;7.78;;;2.00;99.90;;;;;;7347383;32;20135;-60
2023/01/19 04:18:59;;;;;;;12.37;7.90;;;2.00;99.90;;;;;;7344049;32;20156;-61
2023/01/19 04:23:01;;;;;;;12.35;7.18;;;2.00;99.90;;;;;;7345073;32;20210;-60
2023/01/19 04:27:03;;;;;;;12.65;7.40;;;1.90;99.90;;;;;;7339284;32;22160;-61
2023/01/19 04:31:06;;;;;;;14.80;8.00;;;1.80;99.90;;;;;;7351365;32;20107;-61
2023/01/19 04:35:08;;;;;;;14.93;8.88;;;1.70;99.90;;;;;;7346366;32;20103;-60
2023/01/19 04:39:10;;;;;;;16.62;9.43;;;1.60;99.90;;;;;;7343017;32;20111;-60
2023/01/19 04:43:13;;;;;;;16.52;9.07;;;1.50;99.90;;;;;;7346016;32;20246;-60
2023/01/19 04:47:14;;;;;;;17.23;9.70;;;1.40;99.90;;;;;;7346343;32;20099;-60
2023/01/19 04:51:16;;;;;;;16.80;9.75;;;1.30;99.90;;;;;;7345251;32;20137;-61
2023/01/19 04:55:18;;;;;;;16.48;10.23;;;1.20;99.90;;;;;;7345452;32;20118;-60
2023/01/19 04:59:20;;;;;;;19.37;11.30;;;1.10;99.90;;;;;;7341933;32;20450;-60
2023/01/19 05:03:22;;;;;;;20.23;10.45;;;1.20;99.90;;;;;;7347836;32;20789;-60
2023/01/19 05:07:26;;;;;;;17.65;10.45;;;1.10;99.90;;;;;;7343969;32;20164;-60
2023/01/19 05:11:28;;;;;;;17.90;11.20;;;1.10;99.90;;;;;;7342580;32;20540;-60
2023/01/19 05:15:30;;;;;;;19.98;11.12;;;1.00;99.90;;;;;;7343045;32;20490;-60
2023/01/19 05:19:32;;;;;;;19.98;10.75;;;1.10;99.90;;;;;;7334553;32;20349;-60
2023/01/19 05:23:33;;;;;;;24.55;12.02;;;1.10;99.90;;;;;;7335762;32;20100;-60
2023/01/19 05:27:36;;;;;;;19.23;11.80;;;1.00;99.90;;;;;;7343856;32;20171;-60
2023/01/19 05:31:38;;;;;;;19.65;11.30;;;1.00;99.90;;;;;;7342963;32;20135;-60
2023/01/19 05:35:40;;;;;;;19.58;12.25;;;1.00;99.90;;;;;;7346381;32;20509;-62
2023/01/19 05:39:42;;;;;;;19.05;11.23;;;1.00;99.90;;;;;;7342293;32;20216;-60
2023/01/19 05:43:44;;;;;;;17.60;10.23;;;0.90;99.90;;;;;;7349514;32;20133;-60
2023/01/19 05:47:45;;;;;;;21.92;11.70;;;0.90;99.90;;;;;;7341128;32;20099;-60
2023/01/19 05:51:47;;;;;;;19.17;11.68;;;0.90;99.90;;;;;;7343524;32;20140;-60
2023/01/19 05:55:49;;;;;;;16.70;11.25;;;0.80;99.90;;;;;;7342729;32;20137;-60
2023/01/19 05:59:50;;;;;;;16.83;10.95;;;0.90;99.90;;;;;;7337326;32;20107;-60
2023/01/19 06:03:52;;;;;;;17.00;10.77;;;0.90;99.90;;;;;;7348408;32;20127;-60
2023/01/19 06:07:56;;;;;;;16.60;10.45;;;0.90;99.90;;;;;;7345731;32;20217;-60
2023/01/19 06:11:58;;;;;;;16.12;10.13;;;0.90;99.90;;;;;;7340987;32;20111;-60
2023/01/19 06:16:01;;;;;;;16.15;9.98;;;0.90;99.90;;;;;;7342190;32;20147;-60
2023/01/19 06:20:04;;;;;;;14.48;9.57;;;0.90;99.90;;;;;;7339810;32;20278;-60
2023/01/19 06:24:06;;;;;;;16.20;8.77;;;0.90;99.90;;;;;;7342221;32;20115;-60
2023/01/19 06:28:07;;;;;;;11.00;7.40;;;1.00;99.90;;;;;;7337118;32;20514;-61
2023/01/19 06:32:09;;;;;;;10.68;7.00;;;1.00;99.90;;;;;;7338571;32;20123;-62
2023/01/19 06:36:11;;;;;;;13.68;7.35;;;0.90;99.90;;;;;;7341023;32;20099;-60
2023/01/19 06:40:13;;;;;;;10.43;7.37;;;1.00;99.90;;;;;;7341898;32;20212;-61
2023/01/19 06:44:15;;;;;;;12.00;7.70;;;0.90;99.90;;;;;;7345266;32;20126;-60
2023/01/19 06:48:17;;;;;;;11.68;7.20;;;0.90;99.90;;;;;;7348210;32;20099;-59
2023/01/19 06:52:19;;;;;;;9.32;6.60;;;1.00;99.90;;;;;;7342627;32;20226;-59
2023/01/19 06:56:21;;;;;;;9.90;6.30;;;0.90;99.90;;;;;;7342236;32;20209;-60
2023/01/19 07:00:23;;;;;;;8.20;5.20;;;1.00;99.90;;;;;;7343514;32;20501;-61
2023/01/19 07:04:25;;;;;;;8.30;5.68;;;1.00;99.90;;;;;;7341405;32;20286;-60
2023/01/19 07:08:28;;;;;;;9.68;5.97;;;1.00;99.90;;;;;;7333622;32;20139;-61
2023/01/19 07:12:30;;;;;;;9.88;6.43;;;1.00;99.90;;;;;;7332093;32;20107;-61
2023/01/19 07:16:32;;;;;;;11.32;7.03;;;1.00;99.90;;;;;;7338238;32;20831;-61
2023/01/19 07:20:34;;;;;;;11.00;5.97;;;1.10;99.90;;;;;;7336994;32;20103;-62
2023/01/19 07:24:36;;;;;;;10.13;7.25;;;1.10;99.90;;;;;;7346727;32;20919;-62
2023/01/19 07:28:38;;;;;;;11.57;7.45;;;1.10;99.90;;;;;;7343026;32;20231;-62
2023/01/19 07:32:41;;;;;;;12.85;7.60;;;1.10;99.90;;;;;;7341811;32;20812;-61
2023/01/19 07:36:43;;;;;;;13.02;8.13;;;1.20;99.90;;;;;;7336332;32;20607;-63
2023/01/19 07:40:48;;;;;;;12.35;8.27;;;1.20;99.90;;;;;;7344024;32;20107;-63
2023/01/19 07:44:49;;;;;;;14.10;9.15;;;1.20;99.90;;;;;;7344000;32;20273;-60
2023/01/19 07:48:51;;;;;;;12.27;9.05;;;1.20;99.90;;;;;;7335746;32;20103;-61
2023/01/19 07:52:53;;;;;;;14.52;9.88;;;1.30;99.90;;;;;;7330870;32;20190;-64
2023/01/19 07:56:55;;;;;;;17.23;10.15;;;1.30;99.90;;;;;;7336477;32;20096;-62
2023/01/19 08:00:56;;;;;;;13.68;9.77;;;1.30;99.90;;;;;;7332172;32;20271;-63
2023/01/19 08:04:58;;;;;;;14.93;10.13;;;1.40;99.90;;;;;;7337086;32;20195;-62
2023/01/19 08:09:00;;;;;;;16.37;10.40;;;1.40;99.90;;;;;;7330930;32;20159;-63
2023/01/19 08:13:02;;;;;;;16.27;9.52;;;1.30;99.90;;;;;;7344222;32;20539;-62
2023/01/19 08:17:04;;;;;;;16.85;9.32;;;1.40;99.90;;;;;;7340614;32;20782;-63
2023/01/19 08:21:06;;;;;;;15.60;9.40;;;1.40;99.90;;;;;;7343103;32;20287;-63
2023/01/19 08:25:08;;;;;;;16.15;9.90;;;1.50;99.90;;;;;;7332333;32;20226;-62
2023/01/19 08:29:10;;;;;;;17.37;9.75;;;1.40;99.90;;;;;;7338238;32;20177;-61
2023/01/19 08:33:12;;;;;;;13.43;9.13;;;1.50;99.90;;;;;;7335537;32;20110;-62
2023/01/19 08:37:14;;;;;;;16.60;10.30;;;1.50;99.90;;;;;;7336501;32;20217;-61
2023/01/19 08:41:16;;;;;;;12.90;8.65;;;1.60;99.90;;;;;;7339862;32;20229;-61
2023/01/19 08:45:17;;;;;;;21.30;9.50;;;1.60;99.90;;;;;;7340294;32;20205;-61
2023/01/19 08:49:19;;;;;;;20.95;10.95;;;1.60;99.90;;;;;;7332482;32;20270;-61
2023/01/19 08:53:24;;;;;;;17.25;9.57;;;1.60;99.90;;;;;;7339306;32;20417;-61
2023/01/19 08:57:26;;;;;;;15.13;9.98;;;1.70;99.90;;;;;;7334512;32;20103;-61
2023/01/19 09:01:28;;;;;;;20.37;11.25;;;1.70;99.90;;;;;;7335428;32;20125;-62
2023/01/19 09:05:34;;;;;;;17.67;10.55;;;1.70;99.90;;;;;;7338760;32;20519;-61
2023/01/19 09:09:38;;;;;;;20.58;12.15;;;1.70;99.90;;;;;;7337693;32;20714;-62
2023/01/19 09:13:40;;;;;;;20.33;11.02;;;1.70;99.90;;;;;;7342210;32;20170;-61
2023/01/19 09:17:42;;;;;;;17.62;10.30;;;1.80;99.90;;;;;;7340643;32;20191;-60
2023/01/19 09:21:43;;;;;;;19.85;12.10;;;1.80;99.90;;;;;;7346059;32;20216;-62
2023/01/19 09:25:46;;;;;;;23.67;13.55;;;1.80;99.90;;;;;;7344977;32;20115;-62
2023/01/19 09:29:51;;;;;;;21.33;13.13;;;1.80;99.90;;;;;;7341728;32;20194;-61
2023/01/19 09:33:53;;;;;;;20.73;13.52;;;1.90;99.90;;;;;;7337717;32;20124;-62
2023/01/19 09:37:54;;;;;;;22.30;13.30;;;1.80;99.90;;;;;;7330155;32;20178;-63
2023/01/19 09:42:05;;;;;;;22.70;13.55;;;1.80;99.90;;;;;;7336261;32;20588;-63
2023/01/19 09:46:39;;;;;;;21.55;14.05;;;1.80;99.90;;;;;;7336278;32;20134;-62
2023/01/19 09:50:46;;;;;;;28.65;14.75;;;1.90;99.90;;;;;;7339547;32;20490;-61
2023/01/19 09:54:55;;;;;;;26.67;14.82;;;2.00;99.90;;;;;;7333230;32;20137;-62
2023/01/19 09:58:58;;;;;;;25.02;15.15;;;2.00;99.90;;;;;;7335584;32;20186;-61
2023/01/19 10:03:19;;;;;;;30.83;16.08;;;2.00;99.90;;;;;;7333090;32;20112;-61
2023/01/19 10:07:57;;;;;;;29.75;16.67;;;2.00;99.90;;;;;;7343745;32;20437;-62
2023/01/19 10:12:15;;;;;;;30.80;16.55;;;2.10;99.90;;;;;;7340603;32;20126;-62
2023/01/19 10:16:43;;;;;;;32.85;17.35;;;2.00;99.90;;;;;;7336328;32;20206;-61
2023/01/19 10:20:59;;;;;;;30.83;17.75;;;2.00;99.90;;;;;;7340918;32;20220;-60
2023/01/19 10:25:04;;;;;;;36.47;18.15;;;2.00;99.90;;;;;;7346126;32;20154;-63
2023/01/19 10:29:36;;;;;;;33.58;18.50;;;1.90;99.90;;;;;;7336332;32;20269;-61
2023/01/19 10:33:38;;;;;;;34.60;18.92;;;1.90;99.90;;;;;;7332700;32;20129;-61
2023/01/19 10:37:40;;;;;;;37.10;18.20;;;2.00;99.90;;;;;;7335045;32;20892;-61
2023/01/19 10:41:49;;;;;;;38.85;19.65;;;2.00;99.90;;;;;;7333976;32;20115;-62
2023/01/19 10:45:51;;;;;;;36.22;18.83;;;2.00;99.90;;;;;;7338862;32;20103;-61
2023/01/19 10:49:53;;;;;;;31.35;19.27;;;2.00;99.90;;;;;;7327762;32;20129;-63
2023/01/19 10:54:03;;;;;;;41.50;19.20;;;2.00;99.90;;;;;;7334618;32;20245;-61
2023/01/19 10:58:25;;;;;;;41.85;19.12;;;2.10;99.90;;;;;;7329399;32;20709;-61
2023/01/19 11:02:29;;;;;;;30.10;15.77;;;2.30;99.90;;;;;;7331613;32;20540;-61
2023/01/19 11:06:34;;;;;;;36.08;18.27;;;2.40;99.90;;;;;;7338599;32;20628;-63
2023/01/19 11:10:37;;;;;;;39.95;20.08;;;2.40;99.90;;;;;;7327489;32;22096;-62
2023/01/19 11:14:38;;;;;;;40.40;20.50;;;2.50;99.90;;;;;;7335022;32;20108;-60
2023/01/19 11:18:42;;;;;;;39.35;19.40;;;2.60;99.90;;;;;;7336112;32;20222;-62
2023/01/19 11:22:44;;;;;;;35.58;18.42;;;2.60;99.90;;;;;;7338643;32;20137;-61
2023/01/19 11:27:01;;;;;;;35.92;17.73;;;2.50;99.90;;;;;;7334217;32;20168;-61
2023/01/19 11:31:26;;;;;;;37.05;18.52;;;2.50;99.90;;;;;;7333521;32;20131;-63
2023/01/19 11:35:38;;;;;;;32.70;18.42;;;2.50;99.90;;;;;;7329007;32;20134;-63
2023/01/19 11:39:55;;;;;;;41.55;18.33;;;2.50;99.90;;;;;;7332659;32;20128;-62
2023/01/19 11:44:08;;;;;;;37.92;19.00;;;2.50;99.90;;;;;;7343453;32;20709;-61
2023/01/19 11:48:21;;;;;;;34.30;18.33;;;2.50;99.90;;;;;;7341554;32;20171;-61
2023/01/19 11:52:25;;;;;;;40.88;19.60;;;2.50;99.90;;;;;;7335179;32;20204;-62
2023/01/19 11:56:28;;;;;;;40.97;18.98;;;2.40;99.90;;;;;;7350543;32;20150;-62
2023/01/19 12:00:42;;;;;;;42.28;19.60;;;2.50;99.90;;;;;;7330025;32;20217;-62
2023/01/19 12:04:46;;;;;;;41.58;20.17;;;2.40;99.90;;;;;;7341196;32;20117;-62
2023/01/19 12:08:54;;;;;;;38.97;18.87;;;2.40;99.90;;;;;;7338354;32;20103;-63
2023/01/19 12:12:56;;;;;;;36.75;17.08;;;2.50;99.90;;;;;;7345530;32;20253;-62
2023/01/19 12:17:01;;;;;;;33.63;17.85;;;2.60;99.90;;;;;;7338974;32;20301;-63
2023/01/19 12:21:03;;;;;;;36.75;18.58;;;2.60;99.90;;;;;;7337246;32;20237;-64
2023/01/19 12:25:21;;;;;;;33.72;18.27;;;2.50;99.90;;;;;;7341088;32;20206;-62
2023/01/19 12:29:24;;;;;;;;;;;2.40;99.90;;;;;;7339916;32;20128;-61
2023/01/19 12:33:39;;;;;;;35.75;19.35;;;2.40;99.90;;;;;;7347660;32;20061;-63
2023/01/19 12:37:41;;;;;;;30.90;15.75;;;2.50;99.90;;;;;;7335298;32;20098;-62
2023/01/19 12:41:44;;;;;;;29.37;15.93;;;2.60;99.90;;;;;;7344731;32;20225;-61
2023/01/19 12:45:46;;;;;;;32.95;16.83;;;2.70;99.90;;;;;;7340275;32;20104;-61
2023/01/19 12:49:59;;;;;;;30.58;16.12;;;2.80;99.90;;;;;;7341052;32;20184;-62
2023/01/19 12:54:05;;;;;;;40.12;16.83;;;2.80;99.90;;;;;;7337429;32;20107;-63
2023/01/19 12:58:17;;;;;;;33.63;17.17;;;2.90;99.90;;;;;;7329880;32;20131;-63
2023/01/19 13:02:19;;;;;;;34.40;16.58;;;2.90;99.90;;;;;;7340129;32;20237;-64
2023/01/19 13:06:49;;;;;;;34.03;16.70;;;3.10;99.90;;;;;;7342253;32;20497;-63
2023/01/19 13:11:09;;;;;;;29.20;15.18;;;3.10;99.90;;;;;;7340714;32;20133;-64
2023/01/19 13:15:33;;;;;;;27.37;14.13;;;3.20;99.90;;;;;;7333035;32;20383;-62
2023/01/19 13:19:42;;;;;;;24.67;12.77;;;3.20;99.90;;;;;;7339527;32;20258;-62
2023/01/19 13:23:50;;;;;;;25.90;12.32;;;3.30;99.90;;;;;;7337150;32;20125;-63
2023/01/19 13:27:52;;;;;;;28.33;12.63;;;3.30;99.90;;;;;;7333095;32;20618;-62
2023/01/19 13:32:01;;;;;;;30.92;13.57;;;3.30;99.90;;;;;;7335074;32;20153;-61
2023/01/19 13:36:03;;;;;;;28.85;14.38;;;3.30;99.90;;;;;;7334108;32;20151;-62
2023/01/19 13:40:05;;;;;;;26.10;14.27;;;3.40;99.90;;;;;;7340376;32;20141;-62
2023/01/19 13:44:27;;;;;;;30.92;14.15;;;3.40;99.90;;;;;;7340359;32;20127;-62
2023/01/19 13:48:31;;;;;;;28.40;12.13;;;3.40;99.90;;;;;;7326658;32;20170;-62
2023/01/19 13:52:33;;;;;;;21.35;12.25;;;3.50;99.90;;;;;;7344795;32;20166;-63
2023/01/19 13:56:35;;;;;;;27.33;13.00;;;3.50;99.90;;;;;;7350524;32;20103;-62
2023/01/19 14:00:37;;;;;;;25.75;12.23;;;3.40;99.90;;;;;;7342953;32;20553;-61
2023/01/19 14:04:42;;;;;;;31.30;12.55;;;3.30;99.90;;;;;;7343507;32;20244;-61
2023/01/19 14:08:44;;;;;;;25.27;13.88;;;3.30;99.90;;;;;;7338511;32;20130;-61
2023/01/19 14:12:57;;;;;;;24.30;14.55;;;3.30;99.90;;;;;;7335418;32;20255;-61
2023/01/19 14:17:00;;;;;;;27.75;14.43;;;3.40;99.90;;;;;;7343850;32;20115;-63
2023/01/19 14:21:10;;;;;;;35.10;15.93;;;3.40;99.90;;;;;;7347730;32;20107;-61
2023/01/19 14:25:32;;;;;;;27.48;15.68;;;3.30;99.90;;;;;;7328437;32;20206;-62
2023/01/19 14:29:36;;;;;;;30.83;14.48;;;3.40;99.90;;;;;;7344060;32;20554;-62
2023/01/19 14:33:44;;;;;;;27.25;13.82;;;3.30;99.90;;;;;;7319702;32;20600;-61
2023/01/19 14:37:49;;;;;;;34.15;14.25;;;3.30;99.90;;;;;;7341019;32;20272;-63
2023/01/19 14:41:52;;;;;;;26.35;14.05;;;3.30;99.90;;;;;;7342245;32;20191;-61
2023/01/19 14:45:55;;;;;;;27.35;14.73;;;3.30;99.90;;;;;;7342667;32;20529;-62
2023/01/19 14:50:01;;;;;;;32.05;13.68;;;3.20;99.90;;;;;;7340208;32;20104;-61
2023/01/19 14:54:03;;;;;;;24.77;12.67;;;3.30;99.90;;;;;;7339921;32;20134;-62
2023/01/19 14:58:14;;;;;;;22.37;11.55;;;3.20;99.90;;;;;;7333118;32;20209;-62
2023/01/19 15:02:19;;;;;;;23.83;12.73;;;3.10;99.90;;;;;;7341205;32;20228;-61
2023/01/19 15:06:22;;;;;;;25.00;11.68;;;3.10;99.90;;;;;;7340723;32;20121;-61
2023/01/19 15:10:25;;;;;;;20.02;10.85;;;3.00;99.90;;;;;;7345143;32;20103;-62
2023/01/19 15:14:26;;;;;;;20.27;11.25;;;2.90;99.90;;;;;;7341441;32;20111;-61
2023/01/19 15:18:29;;;;;;;19.62;10.82;;;2.80;99.90;;;;;;7334432;32;20115;-61
2023/01/19 15:22:30;;;;;;;20.77;12.35;;;2.70;99.90;;;;;;7331491;32;20107;-61
2023/01/19 15:26:32;;;;;;;24.17;11.77;;;2.60;99.90;;;;;;7347516;32;20143;-61
2023/01/19 15:30:34;;;;;;;25.65;12.85;;;2.60;99.90;;;;;;7340508;32;20252;-61
2023/01/19 15:34:36;;;;;;;22.55;11.93;;;2.60;99.90;;;;;;7344311;32;20532;-61
2023/01/19 15:38:38;;;;;;;24.63;13.40;;;2.60;99.90;;;;;;7334499;32;20144;-61
2023/01/19 15:42:40;;;;;;;27.10;14.07;;;2.70;99.90;;;;;;7335026;32;20179;-62
2023/01/19 15:46:42;;;;;;;29.87;13.23;;;2.70;99.90;;;;;;7339776;32;20152;-61
2023/01/19 15:50:44;;;;;;;24.85;13.20;;;2.70;99.90;;;;;;7339402;32;20107;-61
2023/01/19 15:54:46;;;;;;;20.67;12.13;;;2.70;99.90;;;;;;7334900;32;20237;-63
2023/01/19 15:58:48;;;;;;;23.50;12.18;;;2.60;99.90;;;;;;7341919;32;20130;-63
2023/01/19 16:02:50;;;;;;;22.20;12.25;;;2.60;99.90;;;;;;7337124;32;20104;-64
2023/01/19 16:06:52;;;;;;;23.55;12.77;;;2.60;99.90;;;;;;7334608;32;20222;-63
2023/01/19 16:10:54;;;;;;;24.00;12.93;;;2.70;99.90;;;;;;7339512;32;20166;-64
2023/01/19 16:14:56;;;;;;;25.12;14.87;;;2.60;99.90;;;;;;7338276;32;20514;-61
2023/01/19 16:18:57;;;;;;;28.75;14.38;;;2.60;99.90;;;;;;7340238;32;20194;-62
2023/01/19 16:22:59;;;;;;;26.42;14.65;;;2.50;99.90;;;;;;7334478;32;20171;-62
2023/01/19 16:27:15;;;;;;;25.33;15.23;;;2.50;99.90;;;;;;7332758;32;20183;-61
2023/01/19 16:31:17;;;;;;;31.27;16.92;;;2.60;99.90;;;;;;7339357;32;20672;-61
2023/01/19 16:35:19;;;;;;;31.90;17.20;;;2.60;99.90;;;;;;7337262;32;20111;-61
2023/01/19 16:39:20;;;;;;;26.15;15.07;;;2.50;99.90;;;;;;7339333;32;20894;-61
2023/01/19 16:43:22;;;;;;;30.77;15.55;;;2.40;99.90;;;;;;7343589;32;20584;-61
2023/01/19 16:47:24;;;;;;;25.73;15.85;;;2.30;99.90;;;;;;7343635;32;20442;-63
2023/01/19 16:51:26;;;;;;;23.40;14.15;;;2.40;99.90;;;;;;7334796;32;20178;-61
2023/01/19 16:55:28;;;;;;;26.98;15.25;;;2.40;99.90;;;;;;7347011;32;20126;-62
2023/01/19 16:59:29;;;;;;;25.27;15.60;;;2.40;99.90;;;;;;7335129;32;20126;-60
2023/01/19 17:03:31;;;;;;;24.70;13.82;;;2.40;99.90;;;;;;7337994;32;20604;-59
2023/01/19 17:07:33;;;;;;;23.50;13.80;;;2.50;99.90;;;;;;7346410;32;20197;-60
2023/01/19 17:11:35;;;;;;;21.30;12.93;;;2.30;99.90;;;;;;7342465;32;20125;-60
2023/01/19 17:15:36;;;;;;;24.35;13.35;;;2.20;99.90;;;;;;7344942;32;20282;-61
2023/01/19 17:19:38;;;;;;;22.75;13.65;;;2.20;99.90;;;;;;7334060;32;20104;-60
2023/01/19 17:23:45;;;;;;;22.00;13.20;;;2.10;99.90;;;;;;7336460;32;20194;-64
2023/01/19 17:27:47;;;;;;;21.48;13.00;;;2.10;99.90;;;;;;7331238;32;20380;-59
2023/01/19 17:31:49;;;;;;;24.90;13.68;;;2.20;99.90;;;;;;7340096;32;20125;-59
2023/01/19 17:35:51;;;;;;;22.48;14.27;;;2.00;99.90;;;;;;7338372;32;20107;-59
2023/01/19 17:39:54;;;;;;;27.87;14.45;;;2.00;99.90;;;;;;7338324;32;20179;-59
2023/01/19 17:43:56;;;;;;;23.52;13.35;;;1.90;99.90;;;;;;7333712;32;20711;-61
2023/01/19 17:47:58;;;;;;;25.92;13.32;;;1.90;99.90;;;;;;7339821;32;20289;-61
2023/01/19 17:52:00;;;;;;;22.15;13.25;;;1.80;99.90;;;;;;7338693;32;20107;-61
2023/01/19 17:56:07;;;;;;;27.52;14.38;;;1.60;99.90;;;;;;7335620;32;20111;-59
2023/01/19 18:00:09;;;;;;;27.85;15.10;;;1.50;99.90;;;;;;7335757;32;20103;-59
2023/01/19 18:04:11;;;;;;;27.00;14.23;;;1.30;99.90;;;;;;7341878;32;20191;-59
2023/01/19 18:08:13;;;;;;;23.95;14.38;;;1.20;99.90;;;;;;7335428;32;20125;-60
2023/01/19 18:12:15;;;;;;;21.62;13.57;;;1.10;99.90;;;;;;7331814;32;20198;-59
2023/01/19 18:16:23;;;;;;;19.52;13.00;;;1.00;99.90;;;;;;7346725;32;20121;-59
2023/01/19 18:20:25;;;;;;;28.02;14.50;;;0.80;99.90;;;;;;7336230;32;20156;-59
2023/01/19 18:24:26;;;;;;;25.33;14.13;;;0.80;99.90;;;;;;7339504;32;20218;-59
2023/01/19 18:28:29;;;;;;;26.42;13.02;;;0.70;99.90;;;;;;7339156;32;20178;-59
2023/01/19 18:32:33;;;;;;;24.48;13.07;;;0.60;99.90;;;;;;7335157;32;20126;-59
2023/01/19 18:36:36;;;;;;;24.65;13.48;;;0.50;99.90;;;;;;7337848;32;20134;-59
2023/01/19 18:40:39;;;;;;;27.02;15.23;;;0.40;99.90;;;;;;7337487;32;20134;-60
2023/01/19 18:44:40;;;;;;;27.33;14.85;;;0.30;99.90;;;;;;7335242;32;20142;-60
2023/01/19 18:48:42;;;;;;;27.80;15.95;;;0.20;99.90;;;;;;7341616;32;20107;-61
2023/01/19 18:52:47;;;;;;;28.62;15.23;;;0.10;99.90;;;;;;7339702;32;20115;-60
2023/01/19 18:56:49;;;;;;;24.85;14.87;;;0.10;99.90;;;;;;7337113;32;20245;-60
2023/01/19 19:00:51;;;;;;;24.75;14.70;;;0.10;99.90;;;;;;7340680;32;20138;-60
2023/01/19 19:04:53;;;;;;;28.15;16.35;;;0.00;99.90;;;;;;7345148;32;20795;-61
2023/01/19 19:08:58;;;;;;;25.88;15.57;;;0.00;99.90;;;;;;7340268;32;20380;-59
2023/01/19 19:13:00;;;;;;;25.35;15.98;;;0.00;99.90;;;;;;7330381;32;20541;-59
2023/01/19 19:17:01;;;;;;;44.20;23.27;;;0.10;99.90;;;;;;7337624;32;20104;-59
2023/01/19 19:21:08;;;;;;;30.40;16.45;;;0.20;99.90;;;;;;7336648;32;20318;-61
2023/01/19 19:25:10;;;;;;;28.50;17.02;;;0.20;99.90;;;;;;7339476;32;20103;-60
2023/01/19 19:29:11;;;;;;;29.80;18.30;;;0.30;99.90;;;;;;7340650;32;20107;-60
2023/01/19 19:33:13;;;;;;;37.97;24.27;;;0.30;99.90;;;;;;7331477;32;20103;-60
2023/01/19 19:37:15;;;;;;;39.33;25.92;;;0.40;99.90;;;;;;7339671;32;20103;-60
2023/01/19 19:41:20;;;;;;;37.97;23.17;;;0.50;99.90;;;;;;7314244;32;20207;-60
2023/01/19 19:45:22;;;;;;;36.25;21.10;;;0.60;99.90;;;;;;7337502;32;20130;-60
2023/01/19 19:49:25;;;;;;;39.38;23.08;;;0.70;99.90;;;;;;7334546;32;20202;-60
2023/01/19 19:53:27;;;;;;;31.02;17.83;;;0.80;99.90;;;;;;7343609;32;20221;-60
2023/01/19 19:57:29;;;;;;;33.03;20.70;;;0.80;99.90;;;;;;7336245;32;20175;-60
2023/01/19 20:01:31;;;;;;;34.35;19.92;;;0.90;99.90;;;;;;7334673;32;20213;-60
2023/01/19 20:05:35;;;;;;;36.97;22.62;;;0.90;99.90;;;;;;7339369;32;20132;-60
2023/01/19 20:09:36;;;;;;;25.67;17.77;;;1.00;99.90;;;;;;7340940;32;20127;-62
2023/01/19 20:13:40;;;;;;;35.80;19.50;;;1.00;99.90;;;;;;7335452;32;20265;-60
2023/01/19 20:17:42;;;;;;;32.17;17.77;;;1.10;99.90;;;;;;7338361;32;20268;-60
2023/01/19 20:21:43;;;;;;;28.48;16.80;;;1.10;99.90;;;;;;7343398;32;20163;-60
2023/01/19 20:25:45;;;;;;;28.85;15.90;;;1.20;99.90;;;;;;7341784;32;20225;-60
2023/01/19 20:29:56;;;;;;;27.48;15.70;;;1.20;99.90;;;;;;7345279;32;20656;-60
2023/01/19 20:34:00;;;;;;;26.67;14.13;;;1.30;99.90;;;;;;7336645;32;20107;-60
2023/01/19 20:38:02;;;;;;;30.48;12.88;;;1.40;99.90;;;;;;7331305;32;20179;-60
2023/01/19 20:42:05;;;;;;;30.23;13.20;;;1.40;99.90;;;;;;7340198;32;20125;-62
2023/01/19 20:46:07;;;;;;;36.22;20.65;;;1.50;99.90;;;;;;7344758;32;20133;-61
2023/01/19 20:50:09;;;;;;;24.10;13.18;;;1.50;99.90;;;;;;7349861;32;20295;-61
2023/01/19 20:54:13;;;;;;;23.42;13.05;;;1.60;99.90;;;;;;7342997;32;20123;-61
2023/01/19 20:58:15;;;;;;;21.92;12.82;;;1.60;99.90;;;;;;7338784;32;20111;-61
2023/01/19 21:02:18;;;;;;;22.58;12.23;;;1.50;99.90;;;;;;7333342;32;20127;-60
2023/01/19 21:06:20;;;;;;;21.15;12.70;;;1.60;99.90;;;;;;7337228;32;20205;-61
2023/01/19 21:10:22;;;;;;;23.20;13.05;;;1.60;99.90;;;;;;7336862;32;20120;-61
2023/01/19 21:14:24;;;;;;;27.40;13.82;;;1.40;99.90;;;;;;7339657;32;20260;-62
2023/01/19 21:18:26;;;;;;;22.92;12.85;;;1.30;99.90;;;;;;7329122;32;20174;-61